Aérodrome :
LOGIN :

S'inscrire | Disclaimer

   EN    FR    IT 

 










Légende :    VFR   VFR Marginal   IFR   IFR Intensif   IFR Très Intensif
Visi : 
Plafond : 
>= 8 km
>= 3000ft
5 à 8 km
1000 à 3000 ft
1500m à 5 km
500 à 1000 ft
800 à 1500m
200 à 500 ft
< 800m
< 200 ft
Symboles :   Orages  Brouillard  Fortes neiges  Fortes précipitations  Vent > 20 kt
SIGMETs :   Divers  Orages  Givrage  Turbulence  Onde Orograph.  Cendres Volcan.






- Altitude de l'aérodrome : 348 ft
- Code IATA : STN


EGSS - London Stansted

DERNIER METAR :
  • 261620Z AUTO 29012KT 9999 SCT036 06/M01 Q1006

METARs EXPIRÉS :
  • 261550Z AUTO 30012G23KT 270V340 9999 BKN027 07/00 Q1006
  • 261520Z AUTO 29011KT 260V330 9999 FEW024 SCT032 06/01 Q1005
  • 261450Z AUTO 29012KT 250V320 9999 SCT029 BKN036 07/01 Q1005
  • 261420Z AUTO 29011KT 9999 SCT028 06/01 Q1005
  • 261350Z AUTO 29009KT 9999 SCT033 BKN043 07/01 Q1005
  • 261320Z AUTO 29014KT 9999 BKN028 07/01 Q1004

TAF TAF EGSS
Valide du 26 à 12h jusqu'au 27 à 18h UTC


261105Z 2612/2718 28012KT 9999 SCT030
TEMPO 2612/2616 29016G26KT 5000 SHRA
BECMG 2621/2624 21006KT
BECMG 2703/2706 6000 -RA BKN006
TEMPO 2703/2706 2000 RASN BKN004
BECMG 2706/2709 2000 RASN FEW001 BKN004
PROB40
TEMPO 2706/2712 0800 SN BKN001
BECMG 2709/2712 30014KT
BECMG 2712/2714 9999 NSW SCT030
TEMPO 2714/2718 31018G28KT
ATIS : +44 1279 669 325



MET'MAP, la Météo Aéronautique d'un coup d'oeil ! - Copyright ORBIFLY Décembre 2007 - Disclaimer

ORBIFLY MET'MAP TEAM :

Programmation & Développement : Alexandra Zaïnal
Sur une idée originale de : Baudouin d'Aumeries
Assistance à la programmation : Marc-Olivier Méhu
Soutien technique & logistique : Manuel Goepfert

Contact : metmap@orbifly.com




SOURCES & CREDITS :

   NOAA